sensor_id;sensor_type;location;lat;lon;timestamp;P1;durP1;ratioP1;P2;durP2;ratioP2
85544;SDS011;75982;52.834;13.846;2024-02-21T00:00:09;13.93;;;6.72;;
85544;SDS011;75982;52.834;13.846;2024-02-21T00:02:38;15.02;;;7.10;;
85544;SDS011;75982;52.834;13.846;2024-02-21T00:05:05;18.23;;;7.18;;
85544;SDS011;75982;52.834;13.846;2024-02-21T00:07:32;12.30;;;6.75;;
85544;SDS011;75982;52.834;13.846;2024-02-21T00:09:59;15.32;;;6.68;;
85544;SDS011;75982;52.834;13.846;2024-02-21T00:12:25;16.73;;;7.97;;
85544;SDS011;75982;52.834;13.846;2024-02-21T00:14:52;16.23;;;7.43;;
85544;SDS011;75982;52.834;13.846;2024-02-21T00:17:19;25.50;;;8.07;;
85544;SDS011;75982;52.834;13.846;2024-02-21T00:19:47;19.90;;;7.78;;
85544;SDS011;75982;52.834;13.846;2024-02-21T00:22:13;19.55;;;7.82;;
85544;SDS011;75982;52.834;13.846;2024-02-21T00:24:40;14.80;;;8.07;;
85544;SDS011;75982;52.834;13.846;2024-02-21T00:27:07;18.35;;;6.68;;
85544;SDS011;75982;52.834;13.846;2024-02-21T00:29:34;18.38;;;7.47;;
85544;SDS011;75982;52.834;13.846;2024-02-21T00:32:01;16.50;;;6.60;;
85544;SDS011;75982;52.834;13.846;2024-02-21T00:34:28;20.30;;;7.30;;
85544;SDS011;75982;52.834;13.846;2024-02-21T00:36:58;18.10;;;7.53;;
85544;SDS011;75982;52.834;13.846;2024-02-21T00:39:24;18.48;;;7.63;;
85544;SDS011;75982;52.834;13.846;2024-02-21T00:41:51;19.00;;;7.30;;
85544;SDS011;75982;52.834;13.846;2024-02-21T00:44:18;19.20;;;7.88;;
85544;SDS011;75982;52.834;13.846;2024-02-21T00:46:44;22.10;;;7.43;;
85544;SDS011;75982;52.834;13.846;2024-02-21T00:49:11;19.67;;;7.78;;
85544;SDS011;75982;52.834;13.846;2024-02-21T00:51:38;17.73;;;7.70;;
85544;SDS011;75982;52.834;13.846;2024-02-21T00:54:06;20.60;;;6.55;;
85544;SDS011;75982;52.834;13.846;2024-02-21T00:56:35;23.60;;;7.35;;
85544;SDS011;75982;52.834;13.846;2024-02-21T00:59:02;16.75;;;7.63;;
85544;SDS011;75982;52.834;13.846;2024-02-21T01:01:29;19.50;;;7.35;;
85544;SDS011;75982;52.834;13.846;2024-02-21T01:03:56;15.45;;;6.78;;
85544;SDS011;75982;52.834;13.846;2024-02-21T01:06:23;17.45;;;6.32;;
85544;SDS011;75982;52.834;13.846;2024-02-21T01:08:49;20.92;;;7.15;;
85544;SDS011;75982;52.834;13.846;2024-02-21T01:11:17;15.18;;;7.28;;
85544;SDS011;75982;52.834;13.846;2024-02-21T01:13:45;22.85;;;7.38;;
85544;SDS011;75982;52.834;13.846;2024-02-21T01:16:11;18.05;;;7.10;;
85544;SDS011;75982;52.834;13.846;2024-02-21T01:18:38;17.63;;;7.10;;
85544;SDS011;75982;52.834;13.846;2024-02-21T01:21:06;16.73;;;6.40;;
85544;SDS011;75982;52.834;13.846;2024-02-21T01:23:34;18.42;;;6.45;;
85544;SDS011;75982;52.834;13.846;2024-02-21T01:26:01;12.40;;;5.90;;
85544;SDS011;75982;52.834;13.846;2024-02-21T01:28:30;20.85;;;6.43;;
85544;SDS011;75982;52.834;13.846;2024-02-21T01:30:57;16.13;;;6.15;;
85544;SDS011;75982;52.834;13.846;2024-02-21T01:33:24;10.07;;;5.70;;
85544;SDS011;75982;52.834;13.846;2024-02-21T01:35:50;12.07;;;5.25;;
85544;SDS011;75982;52.834;13.846;2024-02-21T01:38:17;16.25;;;5.55;;
85544;SDS011;75982;52.834;13.846;2024-02-21T01:40:44;15.25;;;6.10;;
85544;SDS011;75982;52.834;13.846;2024-02-21T01:43:15;18.35;;;5.72;;
85544;SDS011;75982;52.834;13.846;2024-02-21T01:45:45;14.57;;;5.18;;
85544;SDS011;75982;52.834;13.846;2024-02-21T01:48:15;13.43;;;6.18;;
85544;SDS011;75982;52.834;13.846;2024-02-21T01:50:43;12.20;;;5.43;;
85544;SDS011;75982;52.834;13.846;2024-02-21T01:53:10;16.92;;;5.93;;
85544;SDS011;75982;52.834;13.846;2024-02-21T01:55:38;17.48;;;6.00;;
85544;SDS011;75982;52.834;13.846;2024-02-21T01:58:08;14.65;;;5.32;;
85544;SDS011;75982;52.834;13.846;2024-02-21T02:00:36;14.07;;;5.35;;
85544;SDS011;75982;52.834;13.846;2024-02-21T02:05:34;15.50;;;4.65;;
85544;SDS011;75982;52.834;13.846;2024-02-21T02:08:01;12.98;;;4.97;;
85544;SDS011;75982;52.834;13.846;2024-02-21T02:10:28;16.88;;;5.75;;
85544;SDS011;75982;52.834;13.846;2024-02-21T02:12:55;13.70;;;4.90;;
85544;SDS011;75982;52.834;13.846;2024-02-21T02:15:21;12.70;;;4.07;;
85544;SDS011;75982;52.834;13.846;2024-02-21T02:17:48;15.20;;;5.25;;
85544;SDS011;75982;52.834;13.846;2024-02-21T02:20:16;18.13;;;5.22;;
85544;SDS011;75982;52.834;13.846;2024-02-21T02:22:43;10.50;;;4.60;;
85544;SDS011;75982;52.834;13.846;2024-02-21T02:25:13;9.32;;;4.00;;
85544;SDS011;75982;52.834;13.846;2024-02-21T02:27:43;13.40;;;5.45;;
85544;SDS011;75982;52.834;13.846;2024-02-21T02:30:11;18.00;;;4.80;;
85544;SDS011;75982;52.834;13.846;2024-02-21T02:32:38;10.13;;;4.43;;
85544;SDS011;75982;52.834;13.846;2024-02-21T02:35:05;17.30;;;5.25;;
85544;SDS011;75982;52.834;13.846;2024-02-21T02:37:31;11.40;;;4.95;;
85544;SDS011;75982;52.834;13.846;2024-02-21T02:39:58;12.88;;;4.88;;
85544;SDS011;75982;52.834;13.846;2024-02-21T02:42:26;15.40;;;5.50;;
85544;SDS011;75982;52.834;13.846;2024-02-21T02:44:53;14.27;;;4.68;;
85544;SDS011;75982;52.834;13.846;2024-02-21T02:47:19;15.70;;;4.47;;
85544;SDS011;75982;52.834;13.846;2024-02-21T02:49:46;12.57;;;4.45;;
85544;SDS011;75982;52.834;13.846;2024-02-21T02:52:13;6.97;;;4.15;;
85544;SDS011;75982;52.834;13.846;2024-02-21T02:54:39;16.35;;;4.57;;
85544;SDS011;75982;52.834;13.846;2024-02-21T02:57:06;12.32;;;2.88;;
85544;SDS011;75982;52.834;13.846;2024-02-21T02:59:34;10.77;;;4.10;;
85544;SDS011;75982;52.834;13.846;2024-02-21T03:02:01;14.23;;;4.82;;
85544;SDS011;75982;52.834;13.846;2024-02-21T03:04:29;12.57;;;4.28;;
85544;SDS011;75982;52.834;13.846;2024-02-21T03:06:55;11.32;;;4.00;;
85544;SDS011;75982;52.834;13.846;2024-02-21T03:09:22;13.88;;;4.80;;
85544;SDS011;75982;52.834;13.846;2024-02-21T03:11:49;12.88;;;4.18;;
85544;SDS011;75982;52.834;13.846;2024-02-21T03:14:15;13.70;;;4.68;;
85544;SDS011;75982;52.834;13.846;2024-02-21T03:16:43;7.55;;;3.63;;
85544;SDS011;75982;52.834;13.846;2024-02-21T03:19:10;15.13;;;4.65;;
85544;SDS011;75982;52.834;13.846;2024-02-21T03:21:37;13.80;;;4.53;;
85544;SDS011;75982;52.834;13.846;2024-02-21T03:24:04;12.10;;;4.97;;
85544;SDS011;75982;52.834;13.846;2024-02-21T03:26:31;13.85;;;4.90;;
85544;SDS011;75982;52.834;13.846;2024-02-21T03:28:58;13.65;;;4.35;;
85544;SDS011;75982;52.834;13.846;2024-02-21T03:31:25;15.63;;;4.68;;
85544;SDS011;75982;52.834;13.846;2024-02-21T03:33:58;12.88;;;4.88;;
85544;SDS011;75982;52.834;13.846;2024-02-21T03:36:25;9.93;;;4.15;;
85544;SDS011;75982;52.834;13.846;2024-02-21T03:38:52;12.90;;;4.75;;
85544;SDS011;75982;52.834;13.846;2024-02-21T03:41:18;14.07;;;4.97;;
85544;SDS011;75982;52.834;13.846;2024-02-21T03:43:48;16.10;;;5.50;;
85544;SDS011;75982;52.834;13.846;2024-02-21T03:46:15;12.60;;;5.57;;
85544;SDS011;75982;52.834;13.846;2024-02-21T03:48:42;14.05;;;5.70;;
85544;SDS011;75982;52.834;13.846;2024-02-21T03:51:12;14.00;;;4.65;;
85544;SDS011;75982;52.834;13.846;2024-02-21T03:53:38;12.93;;;5.70;;
85544;SDS011;75982;52.834;13.846;2024-02-21T03:56:05;12.15;;;5.60;;
85544;SDS011;75982;52.834;13.846;2024-02-21T03:58:32;11.52;;;5.38;;
85544;SDS011;75982;52.834;13.846;2024-02-21T04:00:59;13.55;;;6.00;;
85544;SDS011;75982;52.834;13.846;2024-02-21T04:03:27;13.50;;;5.10;;
85544;SDS011;75982;52.834;13.846;2024-02-21T04:05:53;12.90;;;5.63;;
85544;SDS011;75982;52.834;13.846;2024-02-21T04:08:22;13.95;;;5.85;;
85544;SDS011;75982;52.834;13.846;2024-02-21T04:10:49;16.13;;;6.28;;
85544;SDS011;75982;52.834;13.846;2024-02-21T04:13:16;15.35;;;5.88;;
85544;SDS011;75982;52.834;13.846;2024-02-21T04:15:42;17.02;;;6.13;;
85544;SDS011;75982;52.834;13.846;2024-02-21T04:18:09;12.55;;;5.78;;
85544;SDS011;75982;52.834;13.846;2024-02-21T04:20:36;14.40;;;6.03;;
85544;SDS011;75982;52.834;13.846;2024-02-21T04:23:03;15.32;;;6.32;;
85544;SDS011;75982;52.834;13.846;2024-02-21T04:25:31;17.30;;;7.07;;
85544;SDS011;75982;52.834;13.846;2024-02-21T04:27:57;13.15;;;5.47;;
85544;SDS011;75982;52.834;13.846;2024-02-21T04:30:24;15.18;;;6.18;;
85544;SDS011;75982;52.834;13.846;2024-02-21T04:32:51;14.48;;;6.82;;
85544;SDS011;75982;52.834;13.846;2024-02-21T04:35:18;16.90;;;7.85;;
85544;SDS011;75982;52.834;13.846;2024-02-21T04:37:45;16.02;;;6.70;;
85544;SDS011;75982;52.834;13.846;2024-02-21T04:40:11;17.05;;;7.95;;
85544;SDS011;75982;52.834;13.846;2024-02-21T04:42:39;16.60;;;6.53;;
85544;SDS011;75982;52.834;13.846;2024-02-21T04:45:06;15.05;;;6.53;;
85544;SDS011;75982;52.834;13.846;2024-02-21T04:47:34;14.63;;;7.63;;
85544;SDS011;75982;52.834;13.846;2024-02-21T04:50:00;16.20;;;7.18;;
85544;SDS011;75982;52.834;13.846;2024-02-21T04:52:27;17.52;;;7.03;;
85544;SDS011;75982;52.834;13.846;2024-02-21T04:54:54;17.08;;;8.75;;
85544;SDS011;75982;52.834;13.846;2024-02-21T04:57:21;14.82;;;7.43;;
85544;SDS011;75982;52.834;13.846;2024-02-21T04:59:49;14.15;;;7.63;;
85544;SDS011;75982;52.834;13.846;2024-02-21T05:02:15;18.92;;;7.18;;
85544;SDS011;75982;52.834;13.846;2024-02-21T05:04:42;14.48;;;7.60;;
85544;SDS011;75982;52.834;13.846;2024-02-21T05:07:09;19.58;;;8.10;;
85544;SDS011;75982;52.834;13.846;2024-02-21T05:09:36;21.98;;;7.63;;
85544;SDS011;75982;52.834;13.846;2024-02-21T05:12:03;22.90;;;7.93;;
85544;SDS011;75982;52.834;13.846;2024-02-21T05:14:30;26.40;;;8.95;;
85544;SDS011;75982;52.834;13.846;2024-02-21T05:16:58;19.95;;;8.70;;
85544;SDS011;75982;52.834;13.846;2024-02-21T05:19:25;17.00;;;8.73;;
85544;SDS011;75982;52.834;13.846;2024-02-21T05:21:52;17.88;;;7.88;;
85544;SDS011;75982;52.834;13.846;2024-02-21T05:24:18;21.35;;;8.20;;
85544;SDS011;75982;52.834;13.846;2024-02-21T05:26:45;22.73;;;8.10;;
85544;SDS011;75982;52.834;13.846;2024-02-21T05:29:11;23.80;;;9.98;;
85544;SDS011;75982;52.834;13.846;2024-02-21T05:31:54;16.90;;;7.35;;
85544;SDS011;75982;52.834;13.846;2024-02-21T05:34:23;24.67;;;9.45;;
85544;SDS011;75982;52.834;13.846;2024-02-21T05:36:50;23.75;;;8.80;;
85544;SDS011;75982;52.834;13.846;2024-02-21T05:39:17;21.52;;;8.30;;
85544;SDS011;75982;52.834;13.846;2024-02-21T05:41:44;16.30;;;8.23;;
85544;SDS011;75982;52.834;13.846;2024-02-21T05:44:11;18.35;;;8.38;;
85544;SDS011;75982;52.834;13.846;2024-02-21T05:46:38;22.15;;;8.60;;
85544;SDS011;75982;52.834;13.846;2024-02-21T05:49:05;22.00;;;7.80;;
85544;SDS011;75982;52.834;13.846;2024-02-21T05:51:33;27.00;;;9.63;;
85544;SDS011;75982;52.834;13.846;2024-02-21T05:54:00;24.35;;;9.00;;
85544;SDS011;75982;52.834;13.846;2024-02-21T05:56:27;22.52;;;8.43;;
85544;SDS011;75982;52.834;13.846;2024-02-21T05:58:53;27.23;;;8.25;;
85544;SDS011;75982;52.834;13.846;2024-02-21T06:01:20;18.70;;;7.85;;
85544;SDS011;75982;52.834;13.846;2024-02-21T06:03:47;22.48;;;8.80;;
85544;SDS011;75982;52.834;13.846;2024-02-21T06:06:14;28.10;;;9.70;;
85544;SDS011;75982;52.834;13.846;2024-02-21T06:08:42;20.45;;;8.55;;
85544;SDS011;75982;52.834;13.846;2024-02-21T06:11:08;19.42;;;8.68;;
85544;SDS011;75982;52.834;13.846;2024-02-21T06:13:37;22.58;;;9.13;;
85544;SDS011;75982;52.834;13.846;2024-02-21T06:16:05;19.67;;;7.93;;
85544;SDS011;75982;52.834;13.846;2024-02-21T06:18:32;19.42;;;7.88;;
85544;SDS011;75982;52.834;13.846;2024-02-21T06:21:01;21.42;;;8.68;;
85544;SDS011;75982;52.834;13.846;2024-02-21T06:23:28;24.13;;;8.55;;
85544;SDS011;75982;52.834;13.846;2024-02-21T06:25:56;18.83;;;7.20;;
85544;SDS011;75982;52.834;13.846;2024-02-21T06:28:23;18.20;;;7.82;;
85544;SDS011;75982;52.834;13.846;2024-02-21T06:30:50;21.52;;;7.93;;
85544;SDS011;75982;52.834;13.846;2024-02-21T06:33:16;16.83;;;8.10;;
85544;SDS011;75982;52.834;13.846;2024-02-21T06:35:43;15.02;;;7.65;;
85544;SDS011;75982;52.834;13.846;2024-02-21T06:38:10;21.00;;;7.40;;
85544;SDS011;75982;52.834;13.846;2024-02-21T06:40:37;20.08;;;7.70;;
85544;SDS011;75982;52.834;13.846;2024-02-21T06:43:05;16.92;;;7.80;;
85544;SDS011;75982;52.834;13.846;2024-02-21T06:45:32;19.10;;;7.40;;
85544;SDS011;75982;52.834;13.846;2024-02-21T06:47:59;16.08;;;7.30;;
85544;SDS011;75982;52.834;13.846;2024-02-21T06:50:25;19.02;;;7.55;;
85544;SDS011;75982;52.834;13.846;2024-02-21T06:52:52;17.70;;;8.32;;
85544;SDS011;75982;52.834;13.846;2024-02-21T06:55:19;20.40;;;7.38;;
85544;SDS011;75982;52.834;13.846;2024-02-21T06:57:46;20.02;;;7.57;;
85544;SDS011;75982;52.834;13.846;2024-02-21T07:00:15;22.08;;;8.95;;
85544;SDS011;75982;52.834;13.846;2024-02-21T07:02:42;19.88;;;8.43;;
85544;SDS011;75982;52.834;13.846;2024-02-21T07:05:09;20.38;;;8.15;;
85544;SDS011;75982;52.834;13.846;2024-02-21T07:07:36;22.38;;;7.88;;
85544;SDS011;75982;52.834;13.846;2024-02-21T07:10:03;20.83;;;7.68;;
85544;SDS011;75982;52.834;13.846;2024-02-21T07:12:30;17.52;;;8.30;;
85544;SDS011;75982;52.834;13.846;2024-02-21T07:14:57;17.70;;;8.63;;
85544;SDS011;75982;52.834;13.846;2024-02-21T07:17:25;25.20;;;8.60;;
85544;SDS011;75982;52.834;13.846;2024-02-21T07:19:51;17.30;;;8.10;;
85544;SDS011;75982;52.834;13.846;2024-02-21T07:22:18;16.15;;;7.18;;
85544;SDS011;75982;52.834;13.846;2024-02-21T07:24:45;18.50;;;9.82;;
85544;SDS011;75982;52.834;13.846;2024-02-21T07:27:13;48.75;;;16.67;;
85544;SDS011;75982;52.834;13.846;2024-02-21T07:29:41;18.27;;;7.50;;
85544;SDS011;75982;52.834;13.846;2024-02-21T07:32:07;26.85;;;10.88;;
85544;SDS011;75982;52.834;13.846;2024-02-21T07:34:35;28.25;;;10.82;;
85544;SDS011;75982;52.834;13.846;2024-02-21T07:37:02;20.13;;;9.02;;
85544;SDS011;75982;52.834;13.846;2024-02-21T07:39:29;22.60;;;7.65;;
85544;SDS011;75982;52.834;13.846;2024-02-21T07:41:56;25.45;;;10.18;;
85544;SDS011;75982;52.834;13.846;2024-02-21T07:44:23;13.07;;;6.43;;
85544;SDS011;75982;52.834;13.846;2024-02-21T07:46:49;20.25;;;8.00;;
85544;SDS011;75982;52.834;13.846;2024-02-21T07:49:16;18.27;;;8.82;;
85544;SDS011;75982;52.834;13.846;2024-02-21T07:51:44;18.77;;;8.77;;
85544;SDS011;75982;52.834;13.846;2024-02-21T07:54:11;20.63;;;7.93;;
85544;SDS011;75982;52.834;13.846;2024-02-21T07:56:42;20.92;;;8.52;;
85544;SDS011;75982;52.834;13.846;2024-02-21T07:59:08;19.98;;;8.82;;
85544;SDS011;75982;52.834;13.846;2024-02-21T08:01:35;19.38;;;8.07;;
85544;SDS011;75982;52.834;13.846;2024-02-21T08:04:02;20.23;;;8.38;;
85544;SDS011;75982;52.834;13.846;2024-02-21T08:06:29;12.60;;;6.95;;
85544;SDS011;75982;52.834;13.846;2024-02-21T08:08:57;15.82;;;7.80;;
85544;SDS011;75982;52.834;13.846;2024-02-21T08:11:24;20.98;;;8.25;;
85544;SDS011;75982;52.834;13.846;2024-02-21T08:13:50;19.35;;;8.23;;
85544;SDS011;75982;52.834;13.846;2024-02-21T08:16:17;18.58;;;8.35;;
85544;SDS011;75982;52.834;13.846;2024-02-21T08:18:44;18.40;;;8.10;;
85544;SDS011;75982;52.834;13.846;2024-02-21T08:21:11;17.48;;;7.43;;
85544;SDS011;75982;52.834;13.846;2024-02-21T08:23:37;21.33;;;7.53;;
85544;SDS011;75982;52.834;13.846;2024-02-21T08:26:05;14.77;;;7.50;;
85544;SDS011;75982;52.834;13.846;2024-02-21T08:28:32;20.67;;;8.27;;
85544;SDS011;75982;52.834;13.846;2024-02-21T08:30:59;19.48;;;7.25;;
85544;SDS011;75982;52.834;13.846;2024-02-21T08:33:26;19.00;;;8.00;;
85544;SDS011;75982;52.834;13.846;2024-02-21T08:35:52;18.35;;;8.00;;
85544;SDS011;75982;52.834;13.846;2024-02-21T08:38:19;19.27;;;8.48;;
85544;SDS011;75982;52.834;13.846;2024-02-21T08:40:46;18.95;;;8.15;;
85544;SDS011;75982;52.834;13.846;2024-02-21T08:43:14;17.58;;;7.88;;
85544;SDS011;75982;52.834;13.846;2024-02-21T08:45:41;16.58;;;7.93;;
85544;SDS011;75982;52.834;13.846;2024-02-21T08:48:07;14.38;;;7.03;;
85544;SDS011;75982;52.834;13.846;2024-02-21T08:50:34;19.70;;;7.47;;
85544;SDS011;75982;52.834;13.846;2024-02-21T08:53:01;19.00;;;7.95;;
85544;SDS011;75982;52.834;13.846;2024-02-21T08:55:28;14.93;;;7.88;;
85544;SDS011;75982;52.834;13.846;2024-02-21T08:57:55;19.05;;;8.15;;
85544;SDS011;75982;52.834;13.846;2024-02-21T09:00:23;16.90;;;7.75;;
85544;SDS011;75982;52.834;13.846;2024-02-21T09:02:50;12.43;;;6.72;;
85544;SDS011;75982;52.834;13.846;2024-02-21T09:05:16;15.00;;;7.95;;
85544;SDS011;75982;52.834;13.846;2024-02-21T09:07:43;13.10;;;7.43;;
85544;SDS011;75982;52.834;13.846;2024-02-21T09:10:10;20.30;;;8.18;;
85544;SDS011;75982;52.834;13.846;2024-02-21T09:12:37;17.85;;;7.40;;
85544;SDS011;75982;52.834;13.846;2024-02-21T09:15:03;15.05;;;7.15;;
85544;SDS011;75982;52.834;13.846;2024-02-21T09:17:32;19.13;;;8.98;;
85544;SDS011;75982;52.834;13.846;2024-02-21T09:19:59;15.38;;;7.35;;
85544;SDS011;75982;52.834;13.846;2024-02-21T09:22:26;11.30;;;6.25;;
85544;SDS011;75982;52.834;13.846;2024-02-21T09:24:53;16.77;;;7.63;;
85544;SDS011;75982;52.834;13.846;2024-02-21T09:27:20;14.82;;;6.82;;
85544;SDS011;75982;52.834;13.846;2024-02-21T09:29:47;16.88;;;7.28;;
85544;SDS011;75982;52.834;13.846;2024-02-21T09:32:14;16.60;;;7.43;;
85544;SDS011;75982;52.834;13.846;2024-02-21T09:34:42;15.88;;;8.25;;
85544;SDS011;75982;52.834;13.846;2024-02-21T09:37:08;17.38;;;8.30;;
85544;SDS011;75982;52.834;13.846;2024-02-21T09:39:35;21.73;;;7.90;;
85544;SDS011;75982;52.834;13.846;2024-02-21T09:42:03;16.27;;;7.07;;
85544;SDS011;75982;52.834;13.846;2024-02-21T09:44:33;15.20;;;7.28;;
85544;SDS011;75982;52.834;13.846;2024-02-21T09:47:03;14.43;;;6.43;;
85544;SDS011;75982;52.834;13.846;2024-02-21T09:49:33;12.82;;;6.97;;
85544;SDS011;75982;52.834;13.846;2024-02-21T09:52:02;14.63;;;6.53;;
85544;SDS011;75982;52.834;13.846;2024-02-21T09:54:32;13.18;;;6.32;;
85544;SDS011;75982;52.834;13.846;2024-02-21T09:56:59;11.85;;;6.40;;
85544;SDS011;75982;52.834;13.846;2024-02-21T09:59:26;11.68;;;6.20;;
85544;SDS011;75982;52.834;13.846;2024-02-21T10:01:54;11.80;;;6.60;;
85544;SDS011;75982;52.834;13.846;2024-02-21T10:04:21;13.85;;;7.40;;
85544;SDS011;75982;52.834;13.846;2024-02-21T10:06:48;11.57;;;6.22;;
85544;SDS011;75982;52.834;13.846;2024-02-21T10:09:23;13.05;;;6.28;;
85544;SDS011;75982;52.834;13.846;2024-02-21T10:11:50;13.07;;;7.18;;
85544;SDS011;75982;52.834;13.846;2024-02-21T10:14:17;11.65;;;6.18;;
85544;SDS011;75982;52.834;13.846;2024-02-21T10:16:44;14.32;;;6.55;;
85544;SDS011;75982;52.834;13.846;2024-02-21T10:19:17;13.15;;;6.10;;
85544;SDS011;75982;52.834;13.846;2024-02-21T10:21:59;16.00;;;6.32;;
85544;SDS011;75982;52.834;13.846;2024-02-21T10:24:27;13.73;;;5.35;;
85544;SDS011;75982;52.834;13.846;2024-02-21T10:26:58;11.50;;;6.25;;
85544;SDS011;75982;52.834;13.846;2024-02-21T10:29:26;10.38;;;5.28;;
85544;SDS011;75982;52.834;13.846;2024-02-21T10:32:02;11.55;;;5.75;;
85544;SDS011;75982;52.834;13.846;2024-02-21T10:34:30;12.75;;;5.72;;
85544;SDS011;75982;52.834;13.846;2024-02-21T10:36:59;13.75;;;5.78;;
85544;SDS011;75982;52.834;13.846;2024-02-21T10:39:28;14.00;;;6.05;;
85544;SDS011;75982;52.834;13.846;2024-02-21T10:41:59;13.38;;;5.57;;
85544;SDS011;75982;52.834;13.846;2024-02-21T10:46:55;11.52;;;5.40;;
85544;SDS011;75982;52.834;13.846;2024-02-21T10:49:22;9.43;;;5.30;;
85544;SDS011;75982;52.834;13.846;2024-02-21T10:51:49;10.48;;;5.45;;
85544;SDS011;75982;52.834;13.846;2024-02-21T10:54:34;10.18;;;5.95;;
85544;SDS011;75982;52.834;13.846;2024-02-21T10:57:08;19.05;;;7.00;;
85544;SDS011;75982;52.834;13.846;2024-02-21T10:59:37;9.18;;;5.70;;
85544;SDS011;75982;52.834;13.846;2024-02-21T11:02:05;12.75;;;5.30;;
85544;SDS011;75982;52.834;13.846;2024-02-21T11:04:32;9.32;;;5.68;;
85544;SDS011;75982;52.834;13.846;2024-02-21T11:07:02;14.70;;;7.70;;
85544;SDS011;75982;52.834;13.846;2024-02-21T11:09:37;8.35;;;5.88;;
85544;SDS011;75982;52.834;13.846;2024-02-21T11:12:04;11.65;;;6.55;;
85544;SDS011;75982;52.834;13.846;2024-02-21T11:14:33;10.15;;;5.55;;
85544;SDS011;75982;52.834;13.846;2024-02-21T11:17:01;11.32;;;6.20;;
85544;SDS011;75982;52.834;13.846;2024-02-21T11:19:28;7.85;;;4.80;;
85544;SDS011;75982;52.834;13.846;2024-02-21T11:21:56;9.57;;;6.25;;
85544;SDS011;75982;52.834;13.846;2024-02-21T11:24:27;13.30;;;6.30;;
85544;SDS011;75982;52.834;13.846;2024-02-21T11:26:56;9.43;;;5.38;;
85544;SDS011;75982;52.834;13.846;2024-02-21T11:29:23;10.93;;;5.30;;
85544;SDS011;75982;52.834;13.846;2024-02-21T11:31:50;10.98;;;5.55;;
85544;SDS011;75982;52.834;13.846;2024-02-21T11:34:18;8.63;;;4.75;;
85544;SDS011;75982;52.834;13.846;2024-02-21T11:36:48;8.43;;;4.53;;
85544;SDS011;75982;52.834;13.846;2024-02-21T11:39:20;10.40;;;4.95;;
85544;SDS011;75982;52.834;13.846;2024-02-21T11:41:47;11.23;;;4.97;;
85544;SDS011;75982;52.834;13.846;2024-02-21T11:44:26;6.93;;;4.63;;
85544;SDS011;75982;52.834;13.846;2024-02-21T11:46:52;9.30;;;4.78;;
85544;SDS011;75982;52.834;13.846;2024-02-21T11:49:19;6.68;;;4.15;;
85544;SDS011;75982;52.834;13.846;2024-02-21T11:51:46;7.38;;;4.65;;
85544;SDS011;75982;52.834;13.846;2024-02-21T11:54:12;8.60;;;4.10;;
85544;SDS011;75982;52.834;13.846;2024-02-21T11:56:39;8.30;;;4.63;;
85544;SDS011;75982;52.834;13.846;2024-02-21T11:59:06;6.50;;;4.35;;
85544;SDS011;75982;52.834;13.846;2024-02-21T12:01:34;8.68;;;4.25;;
85544;SDS011;75982;52.834;13.846;2024-02-21T12:04:01;6.68;;;3.72;;
85544;SDS011;75982;52.834;13.846;2024-02-21T12:06:28;9.65;;;4.75;;
85544;SDS011;75982;52.834;13.846;2024-02-21T12:08:57;8.25;;;3.83;;
85544;SDS011;75982;52.834;13.846;2024-02-21T12:11:24;6.80;;;4.90;;
85544;SDS011;75982;52.834;13.846;2024-02-21T12:14:00;6.80;;;4.38;;
85544;SDS011;75982;52.834;13.846;2024-02-21T12:16:28;11.05;;;4.68;;
85544;SDS011;75982;52.834;13.846;2024-02-21T12:18:56;11.57;;;4.47;;
85544;SDS011;75982;52.834;13.846;2024-02-21T12:21:24;6.10;;;4.45;;
85544;SDS011;75982;52.834;13.846;2024-02-21T12:23:51;7.03;;;4.35;;
85544;SDS011;75982;52.834;13.846;2024-02-21T12:26:17;5.18;;;3.13;;
85544;SDS011;75982;52.834;13.846;2024-02-21T12:28:47;6.78;;;3.97;;
85544;SDS011;75982;52.834;13.846;2024-02-21T12:31:14;7.15;;;4.32;;
85544;SDS011;75982;52.834;13.846;2024-02-21T12:33:41;6.50;;;3.75;;
85544;SDS011;75982;52.834;13.846;2024-02-21T12:36:09;8.13;;;3.88;;
85544;SDS011;75982;52.834;13.846;2024-02-21T12:38:36;5.35;;;4.05;;
85544;SDS011;75982;52.834;13.846;2024-02-21T12:41:03;9.38;;;3.92;;
85544;SDS011;75982;52.834;13.846;2024-02-21T12:43:30;4.72;;;3.40;;
85544;SDS011;75982;52.834;13.846;2024-02-21T12:45:57;5.40;;;3.85;;
85544;SDS011;75982;52.834;13.846;2024-02-21T12:48:23;5.43;;;3.95;;
85544;SDS011;75982;52.834;13.846;2024-02-21T12:50:50;7.43;;;4.35;;
85544;SDS011;75982;52.834;13.846;2024-02-21T12:53:19;6.07;;;3.80;;
85544;SDS011;75982;52.834;13.846;2024-02-21T12:55:57;5.22;;;3.25;;
85544;SDS011;75982;52.834;13.846;2024-02-21T12:58:24;5.97;;;3.90;;
85544;SDS011;75982;52.834;13.846;2024-02-21T13:00:51;3.00;;;2.42;;
85544;SDS011;75982;52.834;13.846;2024-02-21T13:03:18;7.95;;;3.38;;
85544;SDS011;75982;52.834;13.846;2024-02-21T13:05:44;5.38;;;3.22;;
85544;SDS011;75982;52.834;13.846;2024-02-21T13:08:11;6.82;;;3.63;;
85544;SDS011;75982;52.834;13.846;2024-02-21T13:10:40;9.35;;;4.68;;
85544;SDS011;75982;52.834;13.846;2024-02-21T13:13:06;5.47;;;3.53;;
85544;SDS011;75982;52.834;13.846;2024-02-21T13:15:33;5.88;;;3.75;;
85544;SDS011;75982;52.834;13.846;2024-02-21T13:18:00;3.75;;;3.03;;
85544;SDS011;75982;52.834;13.846;2024-02-21T13:20:26;5.10;;;3.08;;
85544;SDS011;75982;52.834;13.846;2024-02-21T13:22:53;4.47;;;2.90;;
85544;SDS011;75982;52.834;13.846;2024-02-21T13:25:20;5.00;;;2.90;;
85544;SDS011;75982;52.834;13.846;2024-02-21T13:27:48;4.13;;;2.75;;
85544;SDS011;75982;52.834;13.846;2024-02-21T13:30:15;4.28;;;2.42;;
85544;SDS011;75982;52.834;13.846;2024-02-21T13:32:41;3.78;;;2.72;;
85544;SDS011;75982;52.834;13.846;2024-02-21T13:35:08;4.93;;;2.55;;
85544;SDS011;75982;52.834;13.846;2024-02-21T13:37:35;3.85;;;2.88;;
85544;SDS011;75982;52.834;13.846;2024-02-21T13:40:02;4.78;;;2.55;;
85544;SDS011;75982;52.834;13.846;2024-02-21T13:42:29;3.90;;;2.70;;
85544;SDS011;75982;52.834;13.846;2024-02-21T13:44:57;7.68;;;3.70;;
85544;SDS011;75982;52.834;13.846;2024-02-21T13:47:24;3.85;;;2.85;;
85544;SDS011;75982;52.834;13.846;2024-02-21T13:49:50;4.00;;;2.50;;
85544;SDS011;75982;52.834;13.846;2024-02-21T13:52:17;4.15;;;2.50;;
85544;SDS011;75982;52.834;13.846;2024-02-21T13:54:43;3.17;;;2.53;;
85544;SDS011;75982;52.834;13.846;2024-02-21T13:57:10;12.60;;;3.20;;
85544;SDS011;75982;52.834;13.846;2024-02-21T13:59:37;3.90;;;2.55;;
85544;SDS011;75982;52.834;13.846;2024-02-21T14:02:05;3.13;;;2.20;;
85544;SDS011;75982;52.834;13.846;2024-02-21T14:04:32;5.00;;;2.72;;
85544;SDS011;75982;52.834;13.846;2024-02-21T14:06:58;4.28;;;2.85;;
85544;SDS011;75982;52.834;13.846;2024-02-21T14:09:25;3.60;;;2.80;;
85544;SDS011;75982;52.834;13.846;2024-02-21T14:11:52;3.50;;;2.72;;
85544;SDS011;75982;52.834;13.846;2024-02-21T14:14:19;4.18;;;2.78;;
85544;SDS011;75982;52.834;13.846;2024-02-21T14:16:46;3.75;;;2.55;;
85544;SDS011;75982;52.834;13.846;2024-02-21T14:19:14;6.13;;;2.75;;
85544;SDS011;75982;52.834;13.846;2024-02-21T14:21:41;3.83;;;2.60;;
85544;SDS011;75982;52.834;13.846;2024-02-21T14:24:08;3.45;;;2.22;;
85544;SDS011;75982;52.834;13.846;2024-02-21T14:26:34;3.15;;;2.40;;
85544;SDS011;75982;52.834;13.846;2024-02-21T14:29:01;7.40;;;3.05;;